X  Schlie├čen Metar Luftfahrt Wetterdaten        EDDH Flugplatz Hohn Airport
Temperatur
28°C Temperatur
10°C Taupunkt
32% Feuchtigkeit



Wind
9 KM/H
6 MPH
3 M/S
5 KTS



280°
W
Aktuelle Wetterlage

Mostly Sunny Meistens Sonnig
Luftdruck 1015 (hPa) - 29.97 (inHg)
Sichtweite 7 (Meile) - 11 (km)
Flughafen
Flughafen Code EDDH

Position : Flugplatz Hohn Airport
zur M├╝hlenstr. in ca.: 40 (km)

Metar:
METAR EDDH 031450Z AUTO 28005KT 200V330 CAVOK 28/10 Q1015 TEMPO 29015G25KT SHRA BKN040CB

Zeit: 03-07-2022 16:50 CEST